createdAt,value
2024-01-05T00:00:59.895Z,19.42
2024-01-05T00:03:01.660Z,20.40
2024-01-05T00:05:21.916Z,19.65
2024-01-05T00:07:23.527Z,15.40
2024-01-05T00:09:25.204Z,17.40
2024-01-05T00:11:27.122Z,17.27
2024-01-05T00:13:28.820Z,21.10
2024-01-05T00:15:30.507Z,19.48
2024-01-05T00:17:32.443Z,16.13
2024-01-05T00:19:34.488Z,19.63
2024-01-05T00:21:55.148Z,18.65
2024-01-05T00:23:57.975Z,20.60
2024-01-05T00:26:03.218Z,13.10
2024-01-05T00:28:05.014Z,26.52
2024-01-05T00:30:07.539Z,13.40
2024-01-05T00:32:09.269Z,21.85
2024-01-05T00:34:29.540Z,15.82
2024-01-05T00:36:31.231Z,13.40
2024-01-05T00:38:32.900Z,22.13
2024-01-05T00:40:34.437Z,23.23
2024-01-05T00:42:36.014Z,30.15
2024-01-05T00:44:37.655Z,30.67
2024-01-05T00:46:57.601Z,25.50
2024-01-05T00:48:59.522Z,26.65
2024-01-05T00:51:01.606Z,22.40
2024-01-05T00:53:03.236Z,27.17
2024-01-05T00:55:05.023Z,28.30
2024-01-05T00:57:07.957Z,29.50
2024-01-05T01:01:30.910Z,31.50
2024-01-05T01:03:32.612Z,25.80
2024-01-05T01:05:34.274Z,39.67
2024-01-05T01:07:54.724Z,34.80
2024-01-05T01:09:56.451Z,35.20
2024-01-05T01:11:58.034Z,33.13
2024-01-05T01:13:59.811Z,37.78
2024-01-05T01:16:01.422Z,29.48
2024-01-05T01:18:21.684Z,45.13
2024-01-05T01:20:23.398Z,38.42
2024-01-05T01:22:25.236Z,33.55
2024-01-05T01:24:26.885Z,40.08
2024-01-05T01:26:28.466Z,33.28
2024-01-05T01:28:30.666Z,35.33
2024-01-05T01:30:32.485Z,43.33
2024-01-05T01:32:34.211Z,38.88
2024-01-05T01:34:36.337Z,34.95
2024-01-05T01:36:38.061Z,39.78
2024-01-05T01:38:39.836Z,29.23
2024-01-05T01:40:45.667Z,32.55
2024-01-05T01:42:47.665Z,38.50
2024-01-05T01:44:49.279Z,39.80
2024-01-05T01:47:09.263Z,49.92
2024-01-05T01:49:11.146Z,41.90
2024-01-05T01:51:13.238Z,28.80
2024-01-05T01:53:15.154Z,40.22
2024-01-05T01:55:18.036Z,27.13
2024-01-05T01:57:38.842Z,30.75
2024-01-05T02:00:01.336Z,36.28
2024-01-05T02:02:05.445Z,36.13
2024-01-05T02:04:10.627Z,34.90
2024-01-05T02:06:14.677Z,30.75
2024-01-05T02:08:18.845Z,22.67
2024-01-05T02:12:26.522Z,22.83
2024-01-05T02:14:29.951Z,26.10
2024-01-05T02:16:33.764Z,23.63
2024-01-05T02:18:38.348Z,32.05
2024-01-05T02:20:47.015Z,32.25
2024-01-05T02:23:10.480Z,28.08
2024-01-05T02:25:31.222Z,39.70
2024-01-05T02:27:53.332Z,25.63
2024-01-05T02:29:56.672Z,29.58
2024-01-05T02:32:00.655Z,26.73
2024-01-05T02:34:04.800Z,22.80
2024-01-05T02:36:08.711Z,14.30
2024-01-05T02:38:12.347Z,22.05
2024-01-05T02:40:16.529Z,31.40
2024-01-05T02:42:20.272Z,18.05
2024-01-05T02:44:24.338Z,30.35
2024-01-05T02:46:28.335Z,22.90
2024-01-05T02:48:31.593Z,17.67
2024-01-05T02:50:33.779Z,15.77
2024-01-05T02:52:35.350Z,17.00
2024-01-05T02:54:39.102Z,28.75
2024-01-05T02:56:41.097Z,31.80
2024-01-05T02:58:42.924Z,22.52
2024-01-05T03:00:44.771Z,13.88
2024-01-05T03:02:46.462Z,20.00
2024-01-05T03:04:48.311Z,16.50
2024-01-05T03:06:50.158Z,26.45
2024-01-05T03:08:51.902Z,15.88
2024-01-05T03:10:53.891Z,20.80
2024-01-05T03:13:14.105Z,20.48
2024-01-05T03:15:37.690Z,15.32
2024-01-05T03:17:39.422Z,23.73
2024-01-05T03:19:41.120Z,16.95
2024-01-05T03:22:01.715Z,25.58
2024-01-05T03:24:03.428Z,17.13
2024-01-05T03:26:23.724Z,14.80
2024-01-05T03:28:44.094Z,12.25
2024-01-05T03:30:45.853Z,18.52
2024-01-05T03:32:47.644Z,18.95
2024-01-05T03:34:49.274Z,17.33
2024-01-05T03:37:09.457Z,17.85
2024-01-05T03:39:11.352Z,26.33
2024-01-05T03:41:31.374Z,10.23
2024-01-05T03:43:32.989Z,13.95
2024-01-05T03:45:34.860Z,27.70
2024-01-05T03:47:55.252Z,19.27
2024-01-05T03:49:56.948Z,15.80
2024-01-05T03:51:58.841Z,16.63
2024-01-05T03:54:01.668Z,14.65
2024-01-05T03:56:04.227Z,15.90
2024-01-05T03:58:05.779Z,14.30
2024-01-05T04:00:26.103Z,24.60
2024-01-05T04:02:46.398Z,13.90
2024-01-05T04:04:48.223Z,13.15
2024-01-05T04:06:52.295Z,11.57
2024-01-05T04:08:54.127Z,12.68
2024-01-05T04:10:55.735Z,25.13
2024-01-05T04:12:57.395Z,15.48
2024-01-05T04:14:58.984Z,14.55
2024-01-05T04:17:00.647Z,20.88
2024-01-05T04:19:20.655Z,14.52
2024-01-05T04:21:22.400Z,10.77
2024-01-05T04:23:23.976Z,18.75
2024-01-05T04:25:25.515Z,10.05
2024-01-05T04:27:27.178Z,18.48
2024-01-05T04:29:28.904Z,19.52
2024-01-05T04:31:30.505Z,24.33
2024-01-05T04:33:32.302Z,21.70
2024-01-05T04:35:52.581Z,15.85
2024-01-05T04:37:54.736Z,16.55
2024-01-05T04:39:56.359Z,14.80
2024-01-05T04:41:58.052Z,16.15
2024-01-05T04:43:59.612Z,11.68
2024-01-05T04:46:01.433Z,9.10
2024-01-05T04:48:21.590Z,13.45
2024-01-05T04:50:23.285Z,12.80
2024-01-05T04:52:43.206Z,12.27
2024-01-05T04:54:44.826Z,18.52
2024-01-05T04:56:46.427Z,11.93
2024-01-05T04:58:48.114Z,13.60
2024-01-05T05:00:49.873Z,9.90
2024-01-05T05:02:51.610Z,22.45
2024-01-05T05:04:53.193Z,13.93
2024-01-05T05:06:58.158Z,18.48
2024-01-05T05:09:00.122Z,11.63
2024-01-05T05:11:03.681Z,16.05
2024-01-05T05:13:07.768Z,10.77
2024-01-05T05:15:12.617Z,13.45
2024-01-05T05:17:16.596Z,10.93
2024-01-05T05:19:20.873Z,8.77
2024-01-05T05:23:28.794Z,20.25
2024-01-05T05:25:31.480Z,14.23
2024-01-05T05:27:33.989Z,21.50
2024-01-05T05:29:37.648Z,19.42
2024-01-05T05:31:41.994Z,16.75
2024-01-05T05:33:46.234Z,16.83
2024-01-05T05:36:08.687Z,13.85
2024-01-05T05:38:31.023Z,15.93
2024-01-05T05:40:35.038Z,10.15
2024-01-05T05:42:57.478Z,22.08
2024-01-05T05:45:01.530Z,16.00
2024-01-05T05:47:05.696Z,15.95
2024-01-05T05:49:09.615Z,15.70
2024-01-05T05:53:17.997Z,15.20
2024-01-05T05:55:40.352Z,11.50
2024-01-05T05:57:42.621Z,21.20
2024-01-05T05:59:44.187Z,13.40
2024-01-05T06:01:46.360Z,13.48
2024-01-05T06:03:48.066Z,10.77
2024-01-05T06:05:49.890Z,19.52
2024-01-05T06:07:51.515Z,14.68
2024-01-05T06:09:53.160Z,22.48
2024-01-05T06:12:14.122Z,18.90
2024-01-05T06:14:34.287Z,13.52
2024-01-05T06:16:35.884Z,13.32
2024-01-05T06:18:37.624Z,12.15
2024-01-05T06:20:39.291Z,14.40
2024-01-05T06:22:40.882Z,7.50
2024-01-05T06:24:42.649Z,8.70
2024-01-05T06:26:44.258Z,13.52
2024-01-05T06:28:45.797Z,10.68
2024-01-05T06:31:06.749Z,13.75
2024-01-05T06:33:08.836Z,14.98
2024-01-05T06:35:11.419Z,18.58
2024-01-05T06:37:12.967Z,12.40
2024-01-05T06:39:14.595Z,14.13
2024-01-05T06:41:16.349Z,8.38
2024-01-05T06:43:17.980Z,20.17
2024-01-05T06:45:19.554Z,16.83
2024-01-05T06:47:21.239Z,12.40
2024-01-05T06:49:23.221Z,6.35
2024-01-05T06:51:25.107Z,17.55
2024-01-05T06:53:26.727Z,17.67
2024-01-05T06:55:28.697Z,22.65
2024-01-05T06:57:32.511Z,14.73
2024-01-05T06:59:36.878Z,3.70
2024-01-05T07:01:38.605Z,13.18
2024-01-05T07:03:58.842Z,9.60
2024-01-05T07:06:19.221Z,11.52
2024-01-05T07:08:20.852Z,10.82
2024-01-05T07:10:22.428Z,8.43
2024-01-05T07:12:24.394Z,15.48
2024-01-05T07:14:27.194Z,19.30
2024-01-05T07:16:48.180Z,16.33
2024-01-05T07:18:50.141Z,14.95
2024-01-05T07:20:51.831Z,20.48
2024-01-05T07:22:53.441Z,17.70
2024-01-05T07:24:55.350Z,19.80
2024-01-05T07:26:57.705Z,16.70
2024-01-05T07:28:59.432Z,14.02
2024-01-05T07:31:04.039Z,26.00
2024-01-05T07:33:05.806Z,23.70
2024-01-05T07:35:26.089Z,27.25
2024-01-05T07:37:47.468Z,21.90
2024-01-05T07:39:49.117Z,16.95
2024-01-05T07:41:50.951Z,19.17
2024-01-05T07:43:52.678Z,6.55
2024-01-05T07:45:55.242Z,20.75
2024-01-05T07:47:59.443Z,10.55
2024-01-05T07:50:01.260Z,14.43
2024-01-05T07:52:02.830Z,10.25
2024-01-05T07:54:04.407Z,19.08
2024-01-05T07:56:24.953Z,17.60
2024-01-05T07:58:45.633Z,23.73
2024-01-05T08:00:47.752Z,10.68
2024-01-05T08:03:08.242Z,13.52
2024-01-05T08:05:12.036Z,16.75
2024-01-05T08:07:14.304Z,18.05
2024-01-05T08:09:16.740Z,12.18
2024-01-05T08:11:18.646Z,19.42
2024-01-05T08:13:25.590Z,18.63
2024-01-05T08:15:27.819Z,11.48
2024-01-05T08:17:31.626Z,19.17
2024-01-05T08:19:35.832Z,13.35
2024-01-05T08:21:40.228Z,9.55
2024-01-05T08:23:44.372Z,12.63
2024-01-05T08:25:49.337Z,6.35
2024-01-05T08:27:52.003Z,4.82
2024-01-05T08:29:55.456Z,12.75
2024-01-05T08:32:01.975Z,13.55
2024-01-05T08:34:05.787Z,20.85
2024-01-05T08:36:30.464Z,14.90
2024-01-05T08:38:33.735Z,7.93
2024-01-05T08:40:37.339Z,11.63
2024-01-05T08:42:43.458Z,15.93
2024-01-05T08:44:47.891Z,11.70
2024-01-05T08:48:53.036Z,25.75
2024-01-05T08:50:57.359Z,25.08
2024-01-05T08:55:05.585Z,22.20
2024-01-05T08:57:11.974Z,31.35
2024-01-05T08:59:14.306Z,40.42
2024-01-05T09:01:18.835Z,30.38
2024-01-05T09:03:23.561Z,36.35
2024-01-05T09:05:25.773Z,42.15
2024-01-05T09:07:27.502Z,40.42
2024-01-05T09:09:29.175Z,50.58
2024-01-05T09:11:30.792Z,38.22
2024-01-05T09:13:51.028Z,36.63
2024-01-05T09:15:52.693Z,36.35
2024-01-05T09:17:54.546Z,20.98
2024-01-05T09:19:56.240Z,15.48
2024-01-05T09:21:57.822Z,17.10
2024-01-05T09:23:59.527Z,19.13
2024-01-05T09:26:01.108Z,11.77
2024-01-05T09:28:05.061Z,20.98
2024-01-05T09:30:07.970Z,11.45
2024-01-05T09:32:10.405Z,20.63
2024-01-05T09:34:12.333Z,14.32
2024-01-05T09:36:16.009Z,12.90
2024-01-05T09:38:19.279Z,9.95
2024-01-05T09:40:21.588Z,10.65
2024-01-05T09:42:24.364Z,17.38
2024-01-05T09:44:26.056Z,7.78
2024-01-05T09:46:29.263Z,12.93
2024-01-05T09:48:54.635Z,10.57
2024-01-05T09:50:57.440Z,13.73
2024-01-05T09:52:59.397Z,8.07
2024-01-05T09:55:01.077Z,20.27
2024-01-05T09:57:04.159Z,9.48
2024-01-05T09:59:06.606Z,8.40
2024-01-05T10:01:12.418Z,11.60
2024-01-05T10:03:21.419Z,7.30
2024-01-05T10:05:25.411Z,12.18
2024-01-05T10:07:28.546Z,9.80
2024-01-05T10:09:33.107Z,11.75
2024-01-05T10:11:37.785Z,12.02
2024-01-05T10:13:53.752Z,11.13
2024-01-05T10:16:18.234Z,10.38
2024-01-05T10:18:23.179Z,11.38
2024-01-05T10:20:28.371Z,11.02
2024-01-05T10:22:30.304Z,11.30
2024-01-05T10:24:32.385Z,11.70
2024-01-05T10:26:35.009Z,9.45
2024-01-05T10:28:39.108Z,7.03
2024-01-05T10:30:40.883Z,16.58
2024-01-05T10:32:42.605Z,7.03
2024-01-05T10:34:48.178Z,7.95
2024-01-05T10:36:49.960Z,6.00
2024-01-05T10:38:52.097Z,13.75
2024-01-05T10:41:05.357Z,10.82
2024-01-05T10:43:20.022Z,7.15
2024-01-05T10:45:38.163Z,16.00
2024-01-05T10:47:39.967Z,8.90
2024-01-05T10:50:00.830Z,6.55
2024-01-05T10:52:03.447Z,10.48
2024-01-05T10:54:23.960Z,18.50
2024-01-05T10:56:27.825Z,18.27
2024-01-05T10:58:32.837Z,15.48
2024-01-05T11:00:39.503Z,51.03
2024-01-05T11:02:43.008Z,49.95
2024-01-05T11:04:46.555Z,31.58
2024-01-05T11:06:49.282Z,42.90
2024-01-05T11:09:16.912Z,18.42
2024-01-05T11:11:29.699Z,13.15
2024-01-05T11:13:43.589Z,11.50
2024-01-05T11:16:03.353Z,10.63
2024-01-05T11:18:17.261Z,9.30
2024-01-05T11:20:19.044Z,9.65
2024-01-05T11:22:41.881Z,7.05
2024-01-05T11:24:45.337Z,7.97
2024-01-05T11:26:49.367Z,6.22
2024-01-05T11:28:52.448Z,6.55
2024-01-05T11:31:01.387Z,9.40
2024-01-05T11:33:05.976Z,4.70
2024-01-05T11:37:33.999Z,8.32
2024-01-05T11:39:44.713Z,4.15
2024-01-05T11:41:48.655Z,2.40
2024-01-05T11:45:55.024Z,5.30
2024-01-05T11:47:59.304Z,5.63
2024-01-05T11:50:22.867Z,6.15
2024-01-05T11:52:27.321Z,4.63
2024-01-05T11:54:32.171Z,7.70
2024-01-05T11:56:36.228Z,5.80
2024-01-05T11:58:57.616Z,7.45
2024-01-05T12:01:02.194Z,9.07
2024-01-05T12:03:05.293Z,6.28
2024-01-05T12:05:07.146Z,6.10
2024-01-05T12:07:08.826Z,4.18
2024-01-05T12:09:10.506Z,8.75
2024-01-05T12:11:13.280Z,3.35
2024-01-05T12:13:21.285Z,4.68
2024-01-05T12:15:23.353Z,5.10
2024-01-05T12:17:25.032Z,6.88
2024-01-05T12:19:26.712Z,6.53
2024-01-05T12:21:28.448Z,6.25
2024-01-05T12:23:31.132Z,8.45
2024-01-05T12:25:33.552Z,12.23
2024-01-05T12:27:38.576Z,7.25
2024-01-05T12:29:58.841Z,5.60
2024-01-05T12:32:00.521Z,10.05
2024-01-05T12:34:03.559Z,8.50
2024-01-05T12:36:08.088Z,3.97
2024-01-05T12:40:31.908Z,7.22
2024-01-05T12:42:36.008Z,5.55
2024-01-05T12:44:37.585Z,6.18
2024-01-05T12:46:47.872Z,9.50
2024-01-05T12:48:50.166Z,11.43
2024-01-05T12:51:03.190Z,8.70
2024-01-05T12:53:21.600Z,5.18
2024-01-05T12:55:30.055Z,9.35
2024-01-05T12:57:33.277Z,7.50
2024-01-05T12:59:37.131Z,6.72
2024-01-05T13:01:38.952Z,5.25
2024-01-05T13:03:40.552Z,3.97
2024-01-05T13:05:42.447Z,4.13
2024-01-05T13:07:44.090Z,5.03
2024-01-05T13:09:45.854Z,7.03
2024-01-05T13:11:54.338Z,4.13
2024-01-05T13:13:56.741Z,5.03
2024-01-05T13:16:00.333Z,8.63
2024-01-05T13:18:02.902Z,6.85
2024-01-05T13:20:25.398Z,7.90
2024-01-05T13:22:27.154Z,5.65
2024-01-05T13:24:30.712Z,4.85
2024-01-05T13:26:32.467Z,4.85
2024-01-05T13:28:36.879Z,11.13
2024-01-05T13:30:39.286Z,5.47
2024-01-05T13:32:44.960Z,5.97
2024-01-05T13:34:46.769Z,5.30
2024-01-05T13:36:48.608Z,4.72
2024-01-05T13:38:50.320Z,11.25
2024-01-05T13:40:52.440Z,4.07
2024-01-05T13:42:54.427Z,7.75
2024-01-05T13:44:56.991Z,2.75
2024-01-05T13:46:58.983Z,6.38
2024-01-05T13:49:19.615Z,7.63
2024-01-05T13:51:21.377Z,6.32
2024-01-05T13:53:23.022Z,5.82
2024-01-05T13:55:25.192Z,6.70
2024-01-05T13:57:45.501Z,10.38
2024-01-05T13:59:47.207Z,3.72
2024-01-05T14:01:48.832Z,6.32
2024-01-05T14:03:50.634Z,6.90
2024-01-05T14:05:52.374Z,9.02
2024-01-05T14:07:53.951Z,2.78
2024-01-05T14:09:55.603Z,4.30
2024-01-05T14:11:57.287Z,7.20
2024-01-05T14:13:59.568Z,6.35
2024-01-05T14:16:01.323Z,8.88
2024-01-05T14:18:21.666Z,3.63
2024-01-05T14:20:23.440Z,2.55
2024-01-05T14:22:25.211Z,5.20
2024-01-05T14:24:27.064Z,2.15
2024-01-05T14:26:28.957Z,4.63
2024-01-05T14:28:30.597Z,3.30
2024-01-05T14:30:33.049Z,5.65
2024-01-05T14:32:35.555Z,4.05
2024-01-05T14:34:42.056Z,3.15
2024-01-05T14:36:45.534Z,9.50
2024-01-05T14:39:11.886Z,5.60
2024-01-05T14:41:15.216Z,6.25
2024-01-05T14:43:18.150Z,9.23
2024-01-05T14:45:20.877Z,6.50
2024-01-05T14:47:23.646Z,4.00
2024-01-05T14:49:27.451Z,3.00
2024-01-05T14:53:32.978Z,4.38
2024-01-05T14:55:35.287Z,3.92
2024-01-05T14:57:37.648Z,4.43
2024-01-05T14:59:59.671Z,3.75
2024-01-05T15:02:05.444Z,10.13
2024-01-05T15:04:08.411Z,12.77
2024-01-05T15:06:12.600Z,12.23
2024-01-05T15:08:33.475Z,11.98
2024-01-05T15:10:35.753Z,16.02
2024-01-05T15:12:37.365Z,12.60
2024-01-05T15:14:39.132Z,6.75
2024-01-05T15:16:41.913Z,7.82
2024-01-05T15:18:43.780Z,5.55
2024-01-05T15:21:06.366Z,7.88
2024-01-05T15:23:09.435Z,7.70
2024-01-05T15:25:18.197Z,37.75
2024-01-05T15:27:19.978Z,11.07
2024-01-05T15:29:22.206Z,10.18
2024-01-05T15:31:23.969Z,10.68
2024-01-05T15:33:25.860Z,6.47
2024-01-05T15:35:27.463Z,10.02
2024-01-05T15:37:30.005Z,4.45
2024-01-05T15:39:52.023Z,4.97
2024-01-05T15:41:55.703Z,11.07
2024-01-05T15:43:57.683Z,6.35
2024-01-05T15:45:59.303Z,3.70
2024-01-05T15:48:21.107Z,7.13
2024-01-05T15:50:41.530Z,3.90
2024-01-05T15:52:43.093Z,4.50
2024-01-05T15:55:04.757Z,4.38
2024-01-05T15:57:06.432Z,6.72
2024-01-05T15:59:09.622Z,6.97
2024-01-05T16:01:12.930Z,5.10
2024-01-05T16:03:16.129Z,7.47
2024-01-05T16:05:18.162Z,4.40
2024-01-05T16:07:19.854Z,4.72
2024-01-05T16:09:21.467Z,8.65
2024-01-05T16:11:32.496Z,8.50
2024-01-05T16:13:34.121Z,11.45
2024-01-05T16:15:35.744Z,16.30
2024-01-05T16:17:37.415Z,23.52
2024-01-05T16:19:57.643Z,17.55
2024-01-05T16:21:59.500Z,11.25
2024-01-05T16:24:03.151Z,13.77
2024-01-05T16:26:24.426Z,9.25
2024-01-05T16:28:44.814Z,11.57
2024-01-05T16:31:05.341Z,10.77
2024-01-05T16:33:07.336Z,8.82
2024-01-05T16:35:09.229Z,5.75
2024-01-05T16:37:11.346Z,8.38
2024-01-05T16:39:13.002Z,5.93
2024-01-05T16:41:16.490Z,11.13
2024-01-05T16:43:18.198Z,10.98
2024-01-05T16:45:38.606Z,13.98
2024-01-05T16:47:41.758Z,20.42
2024-01-05T16:49:43.632Z,17.55
2024-01-05T16:51:45.379Z,16.80
2024-01-05T16:53:51.651Z,20.73
2024-01-05T16:55:53.254Z,17.65
2024-01-05T16:57:54.935Z,15.63
2024-01-05T16:59:56.549Z,18.75
2024-01-05T17:01:58.135Z,11.07
2024-01-05T17:04:18.339Z,14.38
2024-01-05T17:06:20.896Z,18.30
2024-01-05T17:08:41.358Z,15.00
2024-01-05T17:10:43.059Z,18.52
2024-01-05T17:12:44.806Z,17.98
2024-01-05T17:14:46.509Z,17.25
2024-01-05T17:16:48.351Z,11.93
2024-01-05T17:18:51.549Z,14.95
2024-01-05T17:20:53.271Z,14.77
2024-01-05T17:22:54.909Z,19.55
2024-01-05T17:24:57.113Z,25.77
2024-01-05T17:27:17.693Z,22.27
2024-01-05T17:29:19.389Z,21.73
2024-01-05T17:31:22.717Z,17.67
2024-01-05T17:33:30.221Z,18.55
2024-01-05T17:35:39.288Z,20.60
2024-01-05T17:37:42.972Z,22.10
2024-01-05T17:39:47.249Z,24.40
2024-01-05T17:41:50.092Z,20.02
2024-01-05T17:44:13.780Z,16.92
2024-01-05T17:46:17.244Z,21.63
2024-01-05T17:48:29.782Z,24.40
2024-01-05T17:50:35.350Z,18.70
2024-01-05T17:52:57.055Z,19.50
2024-01-05T17:55:20.487Z,14.95
2024-01-05T17:57:36.332Z,18.35
2024-01-05T17:59:45.618Z,6.78
2024-01-05T18:01:58.181Z,13.98
2024-01-05T18:04:03.652Z,7.90
2024-01-05T18:06:19.803Z,8.20
2024-01-05T18:08:22.739Z,10.50
2024-01-05T18:10:50.332Z,8.20
2024-01-05T18:12:58.248Z,13.48
2024-01-05T18:15:02.873Z,12.73
2024-01-05T18:17:05.461Z,8.60
2024-01-05T18:19:09.646Z,14.85
2024-01-05T18:21:13.572Z,16.00
2024-01-05T18:23:17.900Z,10.68
2024-01-05T18:25:19.839Z,16.15
2024-01-05T18:27:21.498Z,12.23
2024-01-05T18:29:41.754Z,14.23
2024-01-05T18:32:01.816Z,11.45
2024-01-05T18:34:05.726Z,20.70
2024-01-05T18:36:07.941Z,17.73
2024-01-05T18:38:11.866Z,16.90
2024-01-05T18:40:13.655Z,20.05
2024-01-05T18:42:15.266Z,12.15
2024-01-05T18:44:16.933Z,20.08
2024-01-05T18:46:18.708Z,14.38
2024-01-05T18:48:20.462Z,18.63
2024-01-05T18:50:22.153Z,19.33
2024-01-05T18:52:23.742Z,16.95
2024-01-05T18:54:25.545Z,20.35
2024-01-05T18:56:45.497Z,16.80
2024-01-05T18:59:06.119Z,20.05
2024-01-05T19:01:26.267Z,19.60
2024-01-05T19:03:28.474Z,21.33
2024-01-05T19:05:30.283Z,19.02
2024-01-05T19:07:31.937Z,41.47
2024-01-05T19:09:33.550Z,43.28
2024-01-05T19:11:37.613Z,27.77
2024-01-05T19:13:39.964Z,27.15
2024-01-05T19:15:41.932Z,15.27
2024-01-05T19:17:44.522Z,18.63
2024-01-05T19:19:46.839Z,15.20
2024-01-05T19:21:55.910Z,23.60
2024-01-05T19:23:59.245Z,16.35
2024-01-05T19:26:01.378Z,22.27
2024-01-05T19:28:04.035Z,14.35
2024-01-05T19:30:24.077Z,12.10
2024-01-05T19:32:26.653Z,10.05
2024-01-05T19:34:28.426Z,19.23
2024-01-05T19:36:30.069Z,12.25
2024-01-05T19:38:31.663Z,14.77
2024-01-05T19:40:51.802Z,18.77
2024-01-05T19:42:53.375Z,24.15
2024-01-05T19:44:55.011Z,28.73
2024-01-05T19:46:57.484Z,15.90
2024-01-05T19:48:59.084Z,12.43
2024-01-05T19:51:02.432Z,12.50
2024-01-05T19:53:04.801Z,16.33
2024-01-05T19:55:08.457Z,13.93
2024-01-05T19:57:10.110Z,15.63
2024-01-05T19:59:12.232Z,17.42
2024-01-05T20:01:13.864Z,18.83
2024-01-05T20:03:15.751Z,21.75
2024-01-05T20:05:17.530Z,23.48
2024-01-05T20:07:19.863Z,24.35
2024-01-05T20:09:22.731Z,20.50
2024-01-05T20:11:24.487Z,21.48
2024-01-05T20:13:26.126Z,25.00
2024-01-05T20:15:28.482Z,26.88
2024-01-05T20:17:30.484Z,20.65
2024-01-05T20:19:32.241Z,22.40
2024-01-05T20:21:34.515Z,23.65
2024-01-05T20:23:37.100Z,24.65
2024-01-05T20:25:38.917Z,21.45
2024-01-05T20:27:41.176Z,30.02
2024-01-05T20:29:45.476Z,27.35
2024-01-05T20:31:48.687Z,48.45
2024-01-05T20:33:50.585Z,36.40
2024-01-05T20:35:52.258Z,35.15
2024-01-05T20:37:53.852Z,17.70
2024-01-05T20:39:55.615Z,16.73
2024-01-05T20:41:57.363Z,14.57
2024-01-05T20:43:59.208Z,13.82
2024-01-05T20:46:01.456Z,15.85
2024-01-05T20:48:03.576Z,14.25
2024-01-05T20:50:06.267Z,15.30
2024-01-05T20:52:08.333Z,17.80
2024-01-05T20:54:10.463Z,18.20
2024-01-05T20:56:12.647Z,12.40
2024-01-05T20:58:32.944Z,14.05
2024-01-05T21:00:54.577Z,15.60
2024-01-05T21:02:57.397Z,12.27
2024-01-05T21:04:59.903Z,9.20
2024-01-05T21:07:01.957Z,8.52
2024-01-05T21:09:05.880Z,8.60
2024-01-05T21:11:08.149Z,11.38
2024-01-05T21:13:09.981Z,9.40
2024-01-05T21:15:11.934Z,8.70
2024-01-05T21:17:32.393Z,8.45
2024-01-05T21:19:38.272Z,10.05
2024-01-05T21:21:44.332Z,11.75
2024-01-05T21:23:45.952Z,9.10
2024-01-05T21:25:47.524Z,10.15
2024-01-05T21:27:50.492Z,12.30
2024-01-05T21:29:52.085Z,8.80
2024-01-05T21:31:53.758Z,11.82
2024-01-05T21:33:55.516Z,9.77
2024-01-05T21:35:57.260Z,14.65
2024-01-05T21:37:58.850Z,11.25
2024-01-05T21:40:19.052Z,5.78
2024-01-05T21:42:39.201Z,11.20
2024-01-05T21:44:41.009Z,9.05
2024-01-05T21:46:45.309Z,6.20
2024-01-05T21:48:47.331Z,8.07
2024-01-05T21:51:07.370Z,11.13
2024-01-05T21:53:27.740Z,5.03
2024-01-05T21:55:29.674Z,10.35
2024-01-05T21:57:32.906Z,4.85
2024-01-05T21:59:34.937Z,7.18
2024-01-05T22:01:36.752Z,8.23
2024-01-05T22:03:38.557Z,6.85
2024-01-05T22:05:40.298Z,5.40
2024-01-05T22:07:42.109Z,6.10
2024-01-05T22:09:45.446Z,5.43
2024-01-05T22:11:47.341Z,6.13
2024-01-05T22:13:48.959Z,12.68
2024-01-05T22:15:50.676Z,4.82
2024-01-05T22:17:52.429Z,6.32
2024-01-05T22:19:54.349Z,6.97
2024-01-05T22:21:56.292Z,3.78
2024-01-05T22:23:58.486Z,5.80
2024-01-05T22:26:00.165Z,4.53
2024-01-05T22:28:20.647Z,3.53
2024-01-05T22:30:22.394Z,5.40
2024-01-05T22:32:24.031Z,5.38
2024-01-05T22:34:31.987Z,2.25
2024-01-05T22:36:34.041Z,4.40
2024-01-05T22:38:54.232Z,3.97
2024-01-05T22:40:55.891Z,6.15
2024-01-05T22:42:57.586Z,6.80
2024-01-05T22:44:59.300Z,3.03
2024-01-05T22:47:05.973Z,6.70
2024-01-05T22:49:07.845Z,4.05
2024-01-05T22:51:10.044Z,8.02
2024-01-05T22:53:11.695Z,8.93
2024-01-05T22:55:13.627Z,6.82
2024-01-05T22:57:16.202Z,7.60
2024-01-05T22:59:17.901Z,4.15
2024-01-05T23:01:23.700Z,5.07
2024-01-05T23:03:25.594Z,4.75
2024-01-05T23:05:27.299Z,5.80
2024-01-05T23:07:29.084Z,7.90
2024-01-05T23:09:30.929Z,8.60
2024-01-05T23:11:32.630Z,7.10
2024-01-05T23:13:34.829Z,7.05
2024-01-05T23:15:56.395Z,7.47
2024-01-05T23:17:59.636Z,4.82
2024-01-05T23:20:01.712Z,7.00
2024-01-05T23:22:03.610Z,4.28
2024-01-05T23:24:05.492Z,9.48
2024-01-05T23:26:15.074Z,5.50
2024-01-05T23:28:16.899Z,5.32
2024-01-05T23:30:18.776Z,7.97
2024-01-05T23:32:20.466Z,9.40
2024-01-05T23:34:22.132Z,9.63
2024-01-05T23:36:24.493Z,7.50
2024-01-05T23:38:26.823Z,11.85
2024-01-05T23:40:28.386Z,7.78
2024-01-05T23:42:30.081Z,9.98
2024-01-05T23:44:32.733Z,10.63
2024-01-05T23:46:34.882Z,9.63
2024-01-05T23:48:38.673Z,7.57
2024-01-05T23:50:42.772Z,7.78
2024-01-05T23:52:46.874Z,7.35
2024-01-05T23:56:54.103Z,11.63
